Time;durP1;ratioP1;P1;durP2;ratioP2;P2;SDS_P1;SDS_P2;PMS_P1;PMS_P2;Temp;Humidity;BMP_temperature;BMP_pressure;BME280_temperature;BME280_humidity;BME280_pressure;Samples;Min_cycle;Max_cycle;Signal;HPM_P1;HPM_P2
2022/11/01 00:00:35;;;;;;;29.33;19.33;;;12.00;99.90;;;;;;4999695;28;20229;-81
2022/11/01 00:03:02;;;;;;;30.00;18.53;;;12.00;99.90;;;;;;5003367;28;20232;-81
2022/11/01 00:05:30;;;;;;;30.03;20.00;;;12.00;99.90;;;;;;5009452;28;20223;-81
2022/11/01 00:07:57;;;;;;;31.70;19.93;;;11.90;99.90;;;;;;5001306;28;20299;-81
2022/11/01 00:10:23;;;;;;;28.50;19.43;;;11.90;99.90;;;;;;5002699;28;20301;-80
2022/11/01 00:12:50;;;;;;;32.23;19.93;;;11.90;99.90;;;;;;5013473;28;20224;-81
2022/11/01 00:15:17;;;;;;;27.27;18.80;;;11.90;99.90;;;;;;5006739;28;20680;-81
2022/11/01 00:17:44;;;;;;;30.63;19.37;;;11.90;99.90;;;;;;5010660;28;20240;-80
2022/11/01 00:20:11;;;;;;;28.90;19.23;;;11.90;99.90;;;;;;5005588;28;20250;-80
2022/11/01 00:22:39;;;;;;;30.53;20.63;;;11.80;99.90;;;;;;5001106;28;20232;-81
2022/11/01 00:25:06;;;;;;;31.40;19.67;;;11.80;99.90;;;;;;5006021;28;20300;-81
2022/11/01 00:27:33;;;;;;;32.00;20.53;;;11.80;99.90;;;;;;5010026;28;20230;-81
2022/11/01 00:29:59;;;;;;;33.30;19.97;;;11.80;99.90;;;;;;5011204;28;20230;-82
2022/11/01 00:32:26;;;;;;;30.03;19.57;;;11.70;99.90;;;;;;5001769;28;20219;-81
2022/11/01 00:34:53;;;;;;;30.30;19.70;;;11.70;99.90;;;;;;5005070;28;20655;-81
2022/11/01 00:37:20;;;;;;;29.50;19.20;;;11.80;99.90;;;;;;5008397;28;20233;-81
2022/11/01 00:39:48;;;;;;;32.43;21.03;;;11.80;99.90;;;;;;5011568;28;20234;-81
2022/11/01 00:42:14;;;;;;;29.10;19.23;;;11.70;99.90;;;;;;5005257;28;20775;-81
2022/11/01 00:44:41;;;;;;;31.33;20.53;;;11.80;99.90;;;;;;5003451;28;20770;-81
2022/11/01 00:47:08;;;;;;;32.80;20.57;;;11.80;99.90;;;;;;5008148;28;20269;-81
2022/11/01 00:49:34;;;;;;;34.00;21.50;;;11.70;99.90;;;;;;4999559;28;20227;-81
2022/11/01 00:52:01;;;;;;;32.07;20.67;;;11.70;99.90;;;;;;5004711;28;20614;-80
2022/11/01 00:54:28;;;;;;;31.70;20.27;;;11.70;99.90;;;;;;5002560;28;20799;-81
2022/11/01 00:56:56;;;;;;;30.77;20.57;;;11.70;99.90;;;;;;5001576;28;20228;-81
2022/11/01 00:59:23;;;;;;;28.77;19.53;;;11.70;99.90;;;;;;4995670;28;20223;-81
2022/11/01 01:01:49;;;;;;;32.17;21.17;;;11.80;99.90;;;;;;5004174;28;20218;-81
2022/11/01 01:04:16;;;;;;;30.67;21.57;;;11.80;99.90;;;;;;5002558;28;20328;-81
2022/11/01 01:06:43;;;;;;;33.80;21.67;;;11.80;99.90;;;;;;5023824;23;20221;-91
2022/11/01 01:09:11;;;;;;;30.53;21.03;;;11.80;99.90;;;;;;5020874;28;20224;-90
2022/11/01 01:11:38;;;;;;;34.17;22.60;;;11.80;99.90;;;;;;5009957;28;20260;-90
2022/11/01 01:14:06;;;;;;;32.87;21.70;;;11.80;99.90;;;;;;5002626;28;20890;-91
2022/11/01 01:16:32;;;;;;;35.17;22.80;;;11.80;99.90;;;;;;5014238;28;20716;-91
2022/11/01 01:19:00;;;;;;;35.33;23.23;;;11.90;99.90;;;;;;5005791;28;20221;-91
2022/11/01 01:21:26;;;;;;;36.53;23.37;;;11.80;99.90;;;;;;4999191;28;20230;-91
2022/11/01 01:23:53;;;;;;;34.77;22.03;;;11.80;99.90;;;;;;5006762;28;20250;-92
2022/11/01 01:26:21;;;;;;;36.80;24.17;;;11.80;99.90;;;;;;5009988;28;20279;-91
2022/11/01 01:28:47;;;;;;;35.53;23.37;;;11.70;99.90;;;;;;5009193;28;20228;-91
2022/11/01 01:31:15;;;;;;;35.67;21.10;;;11.80;99.90;;;;;;5007382;28;20225;-91
2022/11/01 01:33:42;;;;;;;37.97;23.13;;;11.80;99.90;;;;;;4996538;28;20238;-91
2022/11/01 01:36:09;;;;;;;33.40;23.63;;;11.90;99.90;;;;;;5006086;28;20225;-91
2022/11/01 01:38:36;;;;;;;33.37;22.27;;;11.90;99.90;;;;;;5003715;28;20233;-91
2022/11/01 01:43:44;;;;;;;34.27;23.13;;;11.90;99.90;;;;;;4996688;28;20227;-91
2022/11/01 01:46:11;;;;;;;37.67;22.37;;;11.90;99.90;;;;;;5004790;28;20311;-91
2022/11/01 01:48:42;;;;;;;36.80;23.23;;;12.00;99.90;;;;;;5003711;28;20222;-92
2022/11/01 01:51:12;;;;;;;35.10;22.80;;;12.00;99.90;;;;;;5006101;28;20711;-93
2022/11/01 01:53:42;;;;;;;34.87;22.53;;;12.00;99.90;;;;;;5004099;28;20236;-92
2022/11/01 01:56:11;;;;;;;39.07;24.23;;;12.00;99.90;;;;;;5007349;28;20807;-92
2022/11/01 01:58:42;;;;;;;36.90;24.00;;;12.10;99.90;;;;;;4999974;28;20524;-92
2022/11/01 02:01:09;;;;;;;37.00;24.70;;;12.00;99.90;;;;;;5005780;28;21051;-92
2022/11/01 02:03:38;;;;;;;38.67;24.67;;;12.00;99.90;;;;;;5000921;28;20316;-92
2022/11/01 02:06:10;;;;;;;38.47;24.00;;;12.10;99.90;;;;;;4997749;28;20306;-92
2022/11/01 02:08:39;;;;;;;35.13;22.87;;;12.10;99.90;;;;;;5004576;28;20895;-92
2022/11/01 02:11:08;;;;;;;38.10;23.67;;;12.10;99.90;;;;;;5009281;28;20311;-92
2022/11/01 02:13:35;;;;;;;36.90;24.40;;;12.10;99.90;;;;;;5001999;28;20234;-92
2022/11/01 02:16:26;;;;;;;37.67;23.60;;;12.10;99.90;;;;;;5004192;28;20228;-91
2022/11/01 02:19:04;;;;;;;39.47;24.47;;;12.20;99.90;;;;;;5013401;28;20220;-92
2022/11/01 02:21:58;;;;;;;39.60;25.00;;;12.20;99.90;;;;;;5004343;28;20250;-91
2022/11/01 02:24:45;;;;;;;41.77;25.57;;;12.20;99.90;;;;;;5000818;28;20268;-92
2022/11/01 02:27:17;;;;;;;39.53;24.30;;;12.20;99.90;;;;;;5011821;28;20282;-92
2022/11/01 02:30:06;;;;;;;40.63;26.07;;;12.20;99.90;;;;;;5002716;28;20227;-91
2022/11/01 02:32:58;;;;;;;39.83;25.67;;;12.20;99.90;;;;;;5018220;28;20233;-92
2022/11/01 02:35:36;;;;;;;37.50;23.67;;;12.20;99.90;;;;;;5011878;28;20318;-92
2022/11/01 02:38:07;;;;;;;43.07;25.93;;;12.30;99.90;;;;;;5004351;28;20292;-91
2022/11/01 02:40:43;;;;;;;38.87;25.50;;;12.30;99.90;;;;;;5003392;28;20266;-91
2022/11/01 02:43:15;;;;;;;45.27;27.30;;;12.30;99.90;;;;;;4989796;28;20256;-91
2022/11/01 02:45:46;;;;;;;41.10;26.20;;;12.30;99.90;;;;;;5009495;28;20316;-92
2022/11/01 02:48:14;;;;;;;39.80;26.57;;;12.30;99.90;;;;;;5013796;28;20252;-92
2022/11/01 02:50:45;;;;;;;42.83;26.70;;;12.30;99.90;;;;;;5013310;28;20243;-92
2022/11/01 02:53:12;;;;;;;43.33;26.37;;;12.30;99.90;;;;;;5022519;28;20757;-92
2022/11/01 02:55:39;;;;;;;45.47;27.67;;;12.30;99.90;;;;;;5002356;28;21657;-93
2022/11/01 02:58:12;;;;;;;44.20;27.90;;;12.40;99.90;;;;;;5013474;28;20308;-92
2022/11/01 03:00:41;;;;;;;41.47;27.03;;;12.40;99.90;;;;;;5017300;28;20328;-92
2022/11/01 03:03:15;;;;;;;44.87;27.20;;;12.40;99.90;;;;;;5019657;28;20254;-92
2022/11/01 03:06:02;;;;;;;40.87;25.87;;;12.40;99.90;;;;;;5011239;28;20237;-92
2022/11/01 03:08:32;;;;;;;38.77;25.57;;;12.50;99.90;;;;;;4999319;28;20223;-92
2022/11/01 03:11:07;;;;;;;39.93;26.07;;;12.50;99.90;;;;;;5012228;28;20248;-92
2022/11/01 03:13:47;;;;;;;38.57;26.30;;;12.50;99.90;;;;;;5005612;28;20230;-92
2022/11/01 03:16:19;;;;;;;42.27;27.13;;;12.40;99.90;;;;;;5008248;28;20639;-92
2022/11/01 03:18:59;;;;;;;45.13;26.63;;;12.50;99.90;;;;;;5010856;28;20232;-92
2022/11/01 03:21:28;;;;;;;42.73;25.83;;;12.50;99.90;;;;;;5021509;28;20227;-91
2022/11/01 03:24:02;;;;;;;44.97;27.73;;;12.50;99.90;;;;;;5002586;28;20762;-91
2022/11/01 03:26:33;;;;;;;41.47;27.03;;;12.50;99.90;;;;;;5008705;28;20231;-91
2022/11/01 03:29:04;;;;;;;41.73;26.67;;;12.50;99.90;;;;;;5001517;28;20858;-91
2022/11/01 03:31:33;;;;;;;47.83;27.33;;;12.50;99.90;;;;;;5027766;28;20243;-91
2022/11/01 03:34:04;;;;;;;43.53;27.80;;;12.60;99.90;;;;;;5003507;28;20249;-92
2022/11/01 03:36:37;;;;;;;42.93;27.40;;;12.50;99.90;;;;;;5006920;28;20241;-93
2022/11/01 03:39:11;;;;;;;41.33;27.10;;;12.50;99.90;;;;;;5011650;28;20217;-92
2022/11/01 03:41:42;;;;;;;45.53;28.00;;;12.50;99.90;;;;;;5005259;28;20227;-91
2022/11/01 03:44:12;;;;;;;41.23;26.97;;;12.60;99.90;;;;;;5000055;28;20229;-91
2022/11/01 03:46:41;;;;;;;38.27;25.57;;;12.60;99.90;;;;;;5008086;28;20246;-91
2022/11/01 03:49:16;;;;;;;40.60;27.30;;;12.60;99.90;;;;;;5006120;28;20314;-92
2022/11/01 03:51:43;;;;;;;41.43;26.60;;;12.60;99.90;;;;;;5005770;28;20704;-92
2022/11/01 03:54:10;;;;;;;43.87;27.83;;;12.70;99.90;;;;;;5003025;28;20225;-92
2022/11/01 03:56:38;;;;;;;41.20;28.00;;;12.70;99.90;;;;;;5009438;28;20876;-91
2022/11/01 03:59:07;;;;;;;42.53;28.37;;;12.60;99.90;;;;;;5009241;28;20252;-92
2022/11/01 04:01:34;;;;;;;39.67;25.33;;;12.60;99.90;;;;;;5004740;28;20232;-92
2022/11/01 04:04:01;;;;;;;44.23;27.77;;;12.60;99.90;;;;;;5009558;28;20232;-91
2022/11/01 04:06:29;;;;;;;47.17;28.17;;;12.70;99.90;;;;;;5019129;28;20275;-92
2022/11/01 04:08:56;;;;;;;44.57;27.20;;;12.70;99.90;;;;;;5005400;28;20218;-93
2022/11/01 04:11:23;;;;;;;41.70;27.30;;;12.60;99.90;;;;;;5009033;28;20314;-92
2022/11/01 04:13:50;;;;;;;42.43;26.87;;;12.60;99.90;;;;;;5001528;28;20251;-93
2022/11/01 04:21:46;;;;;;;43.83;28.23;;;12.60;99.90;;;;;;5022658;28;20225;-92
2022/11/01 04:24:19;;;;;;;40.43;27.33;;;12.60;99.90;;;;;;5001510;28;20709;-91
2022/11/01 04:26:49;;;;;;;46.80;28.37;;;12.60;99.90;;;;;;5008085;28;20327;-91
2022/11/01 04:29:15;;;;;;;48.23;29.33;;;12.60;99.90;;;;;;5004433;28;20228;-91
2022/11/01 04:31:42;;;;;;;46.57;28.53;;;12.50;99.90;;;;;;5008420;28;20234;-91
2022/11/01 04:34:09;;;;;;;39.20;27.37;;;12.60;99.90;;;;;;5004812;28;20217;-92
2022/11/01 04:36:37;;;;;;;46.13;28.50;;;12.50;99.90;;;;;;5005023;28;20306;-92
2022/11/01 04:39:06;;;;;;;52.10;30.57;;;12.50;99.90;;;;;;4999877;28;20222;-91
2022/11/01 04:41:32;;;;;;;48.57;29.87;;;12.50;99.90;;;;;;5004063;28;20218;-91
2022/11/01 04:43:59;;;;;;;42.90;28.90;;;12.50;99.90;;;;;;5001355;28;20255;-91
2022/11/01 04:46:29;;;;;;;47.20;29.43;;;12.40;99.90;;;;;;5003403;28;20679;-92
2022/11/01 04:48:55;;;;;;;49.73;29.83;;;12.40;99.90;;;;;;5000551;28;20266;-92
2022/11/01 04:51:22;;;;;;;49.90;30.20;;;12.40;99.90;;;;;;5014120;28;20308;-92
2022/11/01 04:53:51;;;;;;;47.67;29.10;;;12.40;99.90;;;;;;5004464;28;20223;-94
2022/11/01 04:56:24;;;;;;;47.60;30.63;;;12.40;99.90;;;;;;5028540;28;20228;-96
2022/11/01 04:58:51;;;;;;;45.23;28.70;;;12.40;99.90;;;;;;5037889;28;20244;-96
2022/11/01 05:01:18;;;;;;;45.33;29.23;;;12.50;99.90;;;;;;5026680;28;20308;-96
2022/11/01 05:03:45;;;;;;;51.77;30.50;;;12.50;99.90;;;;;;5028204;28;21205;-94
2022/11/01 05:06:12;;;;;;;51.73;30.10;;;12.50;99.90;;;;;;5018019;28;20228;-96
2022/11/01 05:08:39;;;;;;;46.77;28.63;;;12.40;99.90;;;;;;5021063;28;20233;-95
2022/11/01 05:11:06;;;;;;;48.87;30.80;;;12.50;99.90;;;;;;5025125;28;20225;-95
2022/11/01 05:13:34;;;;;;;45.10;29.20;;;12.40;99.90;;;;;;5029910;23;20422;-81
2022/11/01 05:16:02;;;;;;;49.93;30.93;;;12.40;99.90;;;;;;5005115;28;20227;-82
2022/11/01 05:18:29;;;;;;;46.37;29.33;;;12.40;99.90;;;;;;5000037;28;20222;-83
2022/11/01 05:20:56;;;;;;;52.33;31.53;;;12.40;99.90;;;;;;5001862;28;20224;-83
2022/11/01 05:23:23;;;;;;;46.63;30.03;;;12.40;99.90;;;;;;4997486;28;20221;-82
2022/11/01 05:25:49;;;;;;;48.60;29.93;;;12.40;99.90;;;;;;5001375;28;20235;-83
2022/11/01 05:28:16;;;;;;;48.43;28.70;;;12.40;99.90;;;;;;5000001;28;20706;-82
2022/11/01 05:30:44;;;;;;;46.43;28.90;;;12.30;99.90;;;;;;5003972;28;20229;-81
2022/11/01 05:33:11;;;;;;;48.03;29.40;;;12.30;99.90;;;;;;4994581;28;20230;-82
2022/11/01 05:35:38;;;;;;;49.03;29.00;;;12.30;99.90;;;;;;4995758;28;20234;-82
2022/11/01 05:38:05;;;;;;;51.33;30.27;;;12.30;99.90;;;;;;4996371;28;20223;-81
2022/11/01 05:40:33;;;;;;;51.17;30.53;;;12.30;99.90;;;;;;5000666;28;20230;-80
2022/11/01 05:43:00;;;;;;;47.33;29.37;;;12.30;99.90;;;;;;5004208;28;20228;-82
2022/11/01 05:45:26;;;;;;;46.90;29.13;;;12.30;99.90;;;;;;5000668;28;20417;-83
2022/11/01 05:47:55;;;;;;;48.20;30.03;;;12.30;99.90;;;;;;4996893;28;21062;-81
2022/11/01 05:50:22;;;;;;;47.83;30.60;;;12.30;99.90;;;;;;5002249;28;20970;-83
2022/11/01 05:52:49;;;;;;;50.57;30.73;;;12.30;99.90;;;;;;5003106;28;20234;-83
2022/11/01 05:55:16;;;;;;;47.77;30.77;;;12.30;99.90;;;;;;5002226;28;20218;-83
2022/11/01 05:57:43;;;;;;;46.30;29.40;;;12.30;99.90;;;;;;5001772;28;21291;-83
2022/11/01 06:00:11;;;;;;;49.93;29.17;;;12.30;99.90;;;;;;5015615;28;20228;-81
2022/11/01 06:02:40;;;;;;;47.47;30.10;;;12.40;99.90;;;;;;4997909;28;20235;-83
2022/11/01 06:05:10;;;;;;;48.97;30.53;;;12.40;99.90;;;;;;4999565;28;20223;-81
2022/11/01 06:07:37;;;;;;;51.10;30.40;;;12.30;99.90;;;;;;4998518;28;20216;-84
2022/11/01 06:10:04;;;;;;;46.13;30.33;;;12.30;99.90;;;;;;5007450;28;20220;-84
2022/11/01 06:12:31;;;;;;;44.90;28.97;;;12.30;99.90;;;;;;5000876;28;20330;-85
2022/11/01 06:14:58;;;;;;;53.63;31.33;;;12.30;99.90;;;;;;5001543;28;20219;-85
2022/11/01 06:17:25;;;;;;;50.87;30.97;;;12.30;99.90;;;;;;5003552;28;20232;-84
2022/11/01 06:19:51;;;;;;;47.17;30.43;;;12.30;99.90;;;;;;4994628;28;20228;-84
2022/11/01 06:22:19;;;;;;;52.60;30.93;;;12.30;99.90;;;;;;4999194;28;20306;-86
2022/11/01 06:24:46;;;;;;;49.33;30.50;;;12.30;99.90;;;;;;4994868;28;20241;-84
2022/11/01 06:27:12;;;;;;;51.20;31.30;;;12.30;99.90;;;;;;5020033;28;20215;-83
2022/11/01 06:29:39;;;;;;;52.50;30.53;;;12.30;99.90;;;;;;5000027;28;20239;-83
2022/11/01 06:32:06;;;;;;;52.17;32.40;;;12.30;99.90;;;;;;5000447;28;20233;-82
2022/11/01 06:34:33;;;;;;;51.43;31.83;;;12.20;99.90;;;;;;5001095;28;20234;-83
2022/11/01 06:37:00;;;;;;;50.57;31.03;;;12.30;99.90;;;;;;5009813;28;20267;-84
2022/11/01 06:39:28;;;;;;;51.67;33.00;;;12.20;99.90;;;;;;5002891;28;20226;-84
2022/11/01 06:41:54;;;;;;;53.70;32.90;;;12.30;99.90;;;;;;5005088;28;20323;-83
2022/11/01 06:44:22;;;;;;;54.83;30.67;;;12.30;99.90;;;;;;5007488;28;20217;-83
2022/11/01 06:46:48;;;;;;;53.97;33.17;;;12.30;99.90;;;;;;5003043;28;21322;-83
2022/11/01 06:49:15;;;;;;;50.33;30.63;;;12.30;99.90;;;;;;5006491;28;20228;-83
2022/11/01 06:51:42;;;;;;;55.43;33.00;;;12.30;99.90;;;;;;5009445;28;20316;-84
2022/11/01 06:54:08;;;;;;;50.47;32.43;;;12.30;99.90;;;;;;5006106;28;20225;-84
2022/11/01 06:56:36;;;;;;;48.97;31.93;;;12.30;99.90;;;;;;5003286;28;20224;-81
2022/11/01 06:59:03;;;;;;;50.83;31.33;;;12.30;99.90;;;;;;4998775;28;20219;-82
2022/11/01 07:01:30;;;;;;;53.10;31.93;;;12.30;99.90;;;;;;5003132;28;20219;-86
2022/11/01 07:03:57;;;;;;;55.67;32.80;;;12.30;99.90;;;;;;5004706;28;20277;-86
2022/11/01 07:06:27;;;;;;;53.13;32.40;;;12.30;99.90;;;;;;5020454;22;20254;-81
2022/11/01 07:08:54;;;;;;;47.93;30.43;;;12.30;99.90;;;;;;5025021;28;20686;-81
2022/11/01 07:11:21;;;;;;;52.80;31.67;;;12.30;99.90;;;;;;5013478;28;20235;-82
2022/11/01 07:13:49;;;;;;;52.17;31.33;;;12.40;99.90;;;;;;5017527;28;20229;-81
2022/11/01 07:16:16;;;;;;;52.17;31.73;;;12.30;99.90;;;;;;5014786;28;20253;-81
2022/11/01 07:18:43;;;;;;;49.07;30.70;;;12.30;99.90;;;;;;5045373;28;20283;-81
2022/11/01 07:21:10;;;;;;;50.93;30.90;;;12.30;99.90;;;;;;5022083;28;20223;-79
2022/11/01 07:23:37;;;;;;;52.23;30.77;;;12.40;99.90;;;;;;5026515;28;20572;-83
2022/11/01 07:26:04;;;;;;;51.07;30.50;;;12.40;99.90;;;;;;5026886;28;20816;-81
2022/11/01 07:28:30;;;;;;;46.30;29.47;;;12.40;99.90;;;;;;5023460;28;20290;-78
2022/11/01 07:30:59;;;;;;;48.80;30.57;;;12.40;99.90;;;;;;5024943;28;21285;-80
2022/11/01 07:33:25;;;;;;;49.03;31.00;;;12.50;99.90;;;;;;5023085;28;20755;-79
2022/11/01 07:35:52;;;;;;;44.00;27.60;;;12.40;99.90;;;;;;5020103;28;20321;-80
2022/11/01 07:38:19;;;;;;;48.17;29.73;;;12.50;99.90;;;;;;5023907;28;20232;-80
2022/11/01 07:40:48;;;;;;;44.90;28.93;;;12.50;99.90;;;;;;5029738;28;20744;-81
2022/11/01 07:43:16;;;;;;;43.43;28.40;;;12.60;99.90;;;;;;5026987;28;20559;-82
2022/11/01 07:45:43;;;;;;;43.20;28.40;;;12.70;99.90;;;;;;5028222;28;20241;-80
2022/11/01 07:48:13;;;;;;;44.27;26.77;;;12.70;99.90;;;;;;5023243;28;20236;-80
2022/11/01 07:50:41;;;;;;;43.00;27.57;;;12.80;99.90;;;;;;5024211;28;20280;-80
2022/11/01 07:53:10;;;;;;;42.57;26.93;;;12.80;99.90;;;;;;5026027;28;20607;-81
2022/11/01 07:55:37;;;;;;;41.43;26.87;;;12.90;99.90;;;;;;5039332;28;20224;-81
2022/11/01 07:58:05;;;;;;;45.50;26.80;;;12.80;99.90;;;;;;5022120;28;20228;-81
2022/11/01 08:00:32;;;;;;;41.60;25.97;;;12.90;99.90;;;;;;5014938;28;20238;-81
2022/11/01 08:03:03;;;;;;;37.17;25.03;;;13.00;99.90;;;;;;5012860;28;20215;-80
2022/11/01 08:05:32;;;;;;;34.43;23.87;;;13.00;99.90;;;;;;5008138;28;20236;-79
2022/11/01 08:07:59;;;;;;;37.10;24.33;;;13.10;99.90;;;;;;5017448;28;20237;-79
2022/11/01 08:10:27;;;;;;;38.33;23.23;;;13.20;99.90;;;;;;5022671;28;20237;-80
2022/11/01 08:13:01;;;;;;;31.03;22.17;;;13.20;99.90;;;;;;5034254;28;20315;-80
2022/11/01 08:15:28;;;;;;;33.27;23.03;;;13.30;99.90;;;;;;5016203;28;20226;-79
2022/11/01 08:17:55;;;;;;;31.90;21.50;;;13.40;99.90;;;;;;5020783;28;20280;-81
2022/11/01 08:20:22;;;;;;;36.23;23.20;;;13.40;99.90;;;;;;5015269;28;20227;-81
2022/11/01 08:22:50;;;;;;;37.93;23.37;;;13.50;99.90;;;;;;5019147;28;20219;-80
2022/11/01 08:25:18;;;;;;;32.23;21.13;;;13.50;99.90;;;;;;5020625;28;20763;-80
2022/11/01 08:27:46;;;;;;;32.73;21.77;;;13.60;99.90;;;;;;5018703;28;20238;-79
2022/11/01 08:30:13;;;;;;;34.80;20.97;;;13.60;99.90;;;;;;5012090;28;20456;-81
2022/11/01 08:32:40;;;;;;;29.50;20.53;;;13.70;99.90;;;;;;5022586;28;20519;-79
2022/11/01 08:35:07;;;;;;;29.70;20.37;;;13.70;99.90;;;;;;5020601;28;20229;-79
2022/11/01 08:37:34;;;;;;;33.60;19.60;;;13.70;99.90;;;;;;5017002;28;20609;-80
2022/11/01 08:40:02;;;;;;;28.80;19.90;;;13.80;99.90;;;;;;5021647;28;20226;-78
2022/11/01 08:42:29;;;;;;;27.67;18.63;;;13.80;99.90;;;;;;5023889;28;20233;-80
2022/11/01 08:44:56;;;;;;;27.23;18.47;;;13.90;99.90;;;;;;5014171;28;20372;-79
2022/11/01 08:47:23;;;;;;;26.90;18.20;;;14.10;99.90;;;;;;5015352;28;20255;-79
2022/11/01 08:49:50;;;;;;;25.40;16.83;;;14.40;99.90;;;;;;5025232;28;20226;-80
2022/11/01 08:52:16;;;;;;;26.77;17.03;;;14.70;99.90;;;;;;5022769;28;20252;-78
2022/11/01 08:54:43;;;;;;;28.73;16.33;;;15.00;99.90;;;;;;5024031;28;20503;-79
2022/11/01 08:57:11;;;;;;;24.00;15.90;;;15.10;99.90;;;;;;5019868;28;20585;-80
2022/11/01 08:59:38;;;;;;;21.00;14.80;;;15.20;99.90;;;;;;5024100;28;20241;-78
2022/11/01 09:02:04;;;;;;;26.80;15.27;;;15.30;99.90;;;;;;5023041;28;20233;-78
2022/11/01 09:04:31;;;;;;;22.33;15.10;;;15.30;99.90;;;;;;5023434;28;20234;-79
2022/11/01 09:07:00;;;;;;;30.23;14.77;;;15.30;99.90;;;;;;5014562;28;20305;-77
2022/11/01 09:09:30;;;;;;;21.00;13.60;;;15.30;99.90;;;;;;5022582;28;20354;-80
2022/11/01 09:11:57;;;;;;;21.23;13.77;;;15.30;99.90;;;;;;5023718;28;20228;-80
2022/11/01 09:14:25;;;;;;;20.90;14.00;;;15.40;99.90;;;;;;5020981;28;20502;-78
2022/11/01 09:16:52;;;;;;;18.90;13.77;;;15.40;99.90;;;;;;5023854;28;20348;-78
2022/11/01 09:19:22;;;;;;;18.67;11.63;;;15.40;99.90;;;;;;5023486;28;20233;-78
2022/11/01 09:21:49;;;;;;;19.43;11.50;;;15.50;99.90;;;;;;5025184;28;20649;-78
2022/11/01 09:24:16;;;;;;;16.07;11.43;;;15.50;99.90;;;;;;5019724;28;20224;-78
2022/11/01 09:26:44;;;;;;;15.53;10.40;;;15.60;99.90;;;;;;5020534;28;20317;-79
2022/11/01 09:29:13;;;;;;;18.30;10.67;;;15.60;99.90;;;;;;5017179;28;20221;-79
2022/11/01 09:31:41;;;;;;;16.33;10.80;;;15.60;99.90;;;;;;5014645;28;20773;-79
2022/11/01 09:34:10;;;;;;;14.80;9.40;;;15.60;99.90;;;;;;5015464;28;20295;-79
2022/11/01 09:36:37;;;;;;;14.17;9.07;;;15.60;99.90;;;;;;5022644;28;20393;-79
2022/11/01 09:39:04;;;;;;;14.00;8.80;;;15.60;99.90;;;;;;5012672;28;20222;-79
2022/11/01 09:41:35;;;;;;;11.30;8.03;;;15.70;99.90;;;;;;5019572;28;20228;-80
2022/11/01 09:44:04;;;;;;;13.47;8.20;;;15.70;99.90;;;;;;5018208;28;20224;-79
2022/11/01 09:46:40;;;;;;;15.53;7.53;;;15.80;99.90;;;;;;5014436;28;20233;-80
2022/11/01 09:49:15;;;;;;;9.63;6.60;;;15.80;99.90;;;;;;5018534;28;20241;-78
2022/11/01 09:51:43;;;;;;;11.33;6.77;;;15.90;99.90;;;;;;5020510;28;20228;-78
2022/11/01 09:54:10;;;;;;;15.67;6.83;;;16.00;99.90;;;;;;5011943;28;20580;-80
2022/11/01 09:56:41;;;;;;;9.60;6.33;;;16.10;99.90;;;;;;5022684;28;20253;-79
2022/11/01 09:59:18;;;;;;;12.03;5.57;;;16.20;99.90;;;;;;5007737;28;20841;-79
2022/11/01 10:01:54;;;;;;;10.10;5.63;;;16.30;99.90;;;;;;5022730;28;20766;-80
2022/11/01 10:04:52;;;;;;;9.30;5.50;;;16.40;99.90;;;;;;5015212;28;20301;-78
2022/11/01 10:07:27;;;;;;;10.20;5.33;;;16.40;99.90;;;;;;5025267;28;20232;-78
2022/11/01 10:10:06;;;;;;;6.67;5.00;;;16.50;99.90;;;;;;5036769;28;20246;-79
2022/11/01 10:12:46;;;;;;;10.23;4.90;;;16.60;99.90;;;;;;5016436;28;20877;-80
2022/11/01 10:15:32;;;;;;;8.40;4.40;;;16.60;99.90;;;;;;5014713;28;20219;-80
2022/11/01 10:18:10;;;;;;;7.63;4.00;;;16.60;99.90;;;;;;5019305;28;20226;-80
2022/11/01 10:20:40;;;;;;;6.57;3.73;;;16.60;99.90;;;;;;5022240;28;20223;-79
2022/11/01 10:23:07;;;;;;;7.70;3.93;;;16.60;99.90;;;;;;5014351;28;20219;-77
2022/11/01 10:25:37;;;;;;;8.10;4.33;;;16.70;99.90;;;;;;5019865;28;20250;-79
2022/11/01 10:28:10;;;;;;;7.10;4.00;;;16.70;99.90;;;;;;5015117;28;20219;-79
2022/11/01 10:30:40;;;;;;;9.57;4.50;;;16.70;99.90;;;;;;5022202;28;20215;-80
2022/11/01 10:33:24;;;;;;;7.40;4.23;;;16.70;99.90;;;;;;5003244;28;20245;-80
2022/11/01 10:35:56;;;;;;;7.33;4.13;;;16.70;99.90;;;;;;5019012;28;20236;-82
2022/11/01 10:38:33;;;;;;;6.07;4.23;;;16.70;99.90;;;;;;5012820;28;20224;-82
2022/11/01 10:41:09;;;;;;;10.03;4.03;;;16.70;99.90;;;;;;5016446;28;20231;-85
2022/11/01 10:43:42;;;;;;;11.93;4.33;;;16.70;99.90;;;;;;5019635;28;20329;-82
2022/11/01 10:46:16;;;;;;;8.30;3.97;;;16.80;99.90;;;;;;5026874;28;20237;-81
2022/11/01 10:48:47;;;;;;;9.80;4.30;;;16.80;99.90;;;;;;5035224;28;20307;-82
2022/11/01 10:51:18;;;;;;;8.70;4.00;;;16.80;99.90;;;;;;5019503;28;20251;-81
2022/11/01 10:53:48;;;;;;;7.03;3.50;;;16.80;99.90;;;;;;5019680;28;20232;-83
2022/11/01 10:56:17;;;;;;;8.27;3.47;;;16.80;99.90;;;;;;5027807;28;21622;-81
2022/11/01 10:58:49;;;;;;;6.53;3.70;;;16.90;99.90;;;;;;5017948;28;20239;-84
2022/11/01 11:01:21;;;;;;;7.03;3.77;;;17.00;99.90;;;;;;5037592;28;20224;-84
2022/11/01 11:03:49;;;;;;;6.63;3.40;;;17.20;99.90;;;;;;5018863;28;20218;-83
2022/11/01 11:06:19;;;;;;;4.40;3.00;;;17.40;99.90;;;;;;5013126;28;20230;-83
2022/11/01 11:08:51;;;;;;;4.90;3.00;;;17.50;99.90;;;;;;5020296;28;20239;-82
2022/11/01 11:11:22;;;;;;;7.97;3.47;;;17.60;99.90;;;;;;5022689;28;20225;-82
2022/11/01 11:13:53;;;;;;;6.43;3.07;;;17.60;99.90;;;;;;5024885;28;20226;-82
2022/11/01 11:16:28;;;;;;;7.13;3.40;;;17.60;99.90;;;;;;5023342;28;20394;-81
2022/11/01 11:19:14;;;;;;;4.00;2.10;;;17.50;99.90;;;;;;5034503;28;20306;-80
2022/11/01 11:21:45;;;;;;;2.83;2.17;;;17.50;99.90;;;;;;5020810;28;20856;-81
2022/11/01 11:24:18;;;;;;;4.13;1.80;;;17.50;99.90;;;;;;5023653;28;20227;-82
2022/11/01 11:26:47;;;;;;;4.00;1.70;;;17.50;99.90;;;;;;5023539;28;20821;-83
2022/11/01 11:29:30;;;;;;;2.87;1.40;;;17.60;99.90;;;;;;5022086;28;20223;-81
2022/11/01 11:31:58;;;;;;;5.70;2.00;;;17.70;99.90;;;;;;5025298;28;20251;-83
2022/11/01 11:34:29;;;;;;;4.30;1.17;;;17.80;99.90;;;;;;5015814;28;20240;-83
2022/11/01 11:36:58;;;;;;;2.97;1.50;;;18.00;99.90;;;;;;5040248;28;20302;-81
2022/11/01 11:39:27;;;;;;;5.17;1.33;;;18.10;99.30;;;;;;5021833;28;20710;-82
2022/11/01 11:41:53;;;;;;;4.20;1.57;;;18.20;99.20;;;;;;5014945;28;20679;-83
2022/11/01 11:44:39;;;;;;;5.23;1.47;;;18.30;98.70;;;;;;5023508;28;20333;-82
2022/11/01 11:47:20;;;;;;;3.60;1.20;;;18.40;97.40;;;;;;5019698;28;20238;-81
2022/11/01 11:49:48;;;;;;;3.23;1.30;;;18.40;97.30;;;;;;5025680;28;20285;-83
2022/11/01 11:52:19;;;;;;;7.63;1.30;;;18.50;97.90;;;;;;5022634;28;20225;-83
2022/11/01 11:54:47;;;;;;;4.10;1.30;;;18.50;97.00;;;;;;5020531;28;20228;-82
2022/11/01 11:57:19;;;;;;;4.23;1.17;;;18.50;97.20;;;;;;5020422;28;20577;-82
2022/11/01 11:59:51;;;;;;;5.53;1.60;;;18.50;97.20;;;;;;5031335;28;20255;-81
2022/11/01 12:02:21;;;;;;;3.87;1.43;;;18.50;97.10;;;;;;5007596;28;20404;-81
2022/11/01 12:04:53;;;;;;;6.37;1.40;;;18.50;97.20;;;;;;5021185;28;20215;-81
2022/11/01 12:07:30;;;;;;;4.47;1.60;;;18.50;96.30;;;;;;5025906;28;20240;-81
2022/11/01 12:10:01;;;;;;;5.53;1.77;;;18.50;95.90;;;;;;5025526;28;20228;-81
2022/11/01 12:12:29;;;;;;;5.47;1.77;;;18.50;96.10;;;;;;5026771;28;20670;-82
2022/11/01 12:14:57;;;;;;;4.27;1.20;;;18.40;96.10;;;;;;5018452;28;20267;-81
2022/11/01 12:17:33;;;;;;;4.90;1.50;;;18.40;96.40;;;;;;5040392;28;20240;-81
2022/11/01 12:20:14;;;;;;;5.27;1.53;;;18.40;95.80;;;;;;5038305;28;20231;-81
2022/11/01 12:22:48;;;;;;;5.83;1.50;;;18.30;95.80;;;;;;5030967;28;20297;-81
2022/11/01 12:25:18;;;;;;;4.27;1.67;;;18.30;96.10;;;;;;5021672;28;20256;-81
2022/11/01 12:27:53;;;;;;;4.37;1.87;;;18.30;96.10;;;;;;5024857;28;20235;-81
2022/11/01 12:30:23;;;;;;;7.27;1.33;;;18.30;96.10;;;;;;5022590;28;20243;-81
2022/11/01 12:32:52;;;;;;;7.17;2.20;;;18.20;96.20;;;;;;5024709;28;20323;-82
2022/11/01 12:35:29;;;;;;;7.77;2.23;;;18.20;96.10;;;;;;5020153;28;20620;-82
2022/11/01 12:38:22;;;;;;;4.97;1.87;;;18.20;95.60;;;;;;5023033;28;20322;-81
2022/11/01 12:40:52;;;;;;;5.97;2.03;;;18.20;95.60;;;;;;5017109;28;20603;-81
2022/11/01 12:43:25;;;;;;;5.43;1.90;;;18.20;95.50;;;;;;5029339;28;20216;-81
2022/11/01 12:45:55;;;;;;;6.43;2.17;;;18.10;95.30;;;;;;5016009;28;20219;-79
2022/11/01 12:48:27;;;;;;;7.40;1.90;;;18.00;95.20;;;;;;5015709;28;20239;-80
2022/11/01 12:51:00;;;;;;;8.43;2.10;;;18.00;94.90;;;;;;5033015;28;20255;-80